Wednesday, January 28, 2015, 7:11 PM EST
Back to Local

KMPO, Mt Pocono Pocono Mountains

Location: Pocono Summit, PA, United States Lat: 41.133
Local Time: 7:11 PM EST ( 0:11 GMT) Lon: -75.383
Time Zone: US/Eastern Elev: 1915 ft

Show me the last for .
Show Decoded

2015-01-28 18:53 METAR KMPO 282353Z AUTO 32018G25KT 10SM CLR M07/M17 A3011 RMK AO2 SLP234
                 T10721167 11044 21072 51026 =
2015-01-28 17:53 METAR KMPO 282253Z AUTO 32015G19KT 10SM CLR M07/M18 A3008 RMK AO2 SLP224
                 T10671178 =
2015-01-28 16:53 METAR KMPO 282153Z AUTO 32015G20KT 10SM CLR M05/M18 A3006 RMK AO2 SLP214
                 T10501178 =
2015-01-28 15:53 METAR KMPO 282053Z AUTO 32017G26KT 10SM CLR M04/M18 A3003 RMK AO2 PK WND
                 33028/2013 SLP204 T10441178 51013 =
2015-01-28 14:53 METAR KMPO 281953Z AUTO 33011G21KT 10SM CLR M04/M17 A3002 RMK AO2 SLP200
                 T10441172 =
2015-01-28 13:53 METAR KMPO 281853Z AUTO 32014G23KT 10SM CLR M05/M17 A3000 RMK AO2 PK WND
                 32028/1808 SLP195 T10501167 =
2015-01-28 12:53 METAR KMPO 281753Z AUTO 32017G27KT 10SM CLR M06/M16 A2999 RMK AO2 PK WND
                 32031/1737 SLP192 T10611156 11061 21133 50007 =
2015-01-28 11:53 METAR KMPO 281653Z AUTO 32016G26KT 10SM CLR M08/M16 A3000 RMK AO2 PK WND
                 31029/1638 SLP195 T10781156 =
2015-01-28 10:53 METAR KMPO 281553Z AUTO 33013G23KT 10SM CLR M09/M16 A3000 RMK AO2 PK WND
                 34026/1515 SLP198 T10891161 =
2015-01-28 09:53 METAR KMPO 281453Z AUTO 32020G29KT 9SM CLR M11/M17 A2997 RMK AO2 PK WND
                 32034/1359 SLP186 T11061167 53038 =
2015-01-28 08:53 METAR KMPO 281353Z AUTO 32021G30KT 8SM CLR M12/M17 A2992 RMK AO2 PK WND
                 31039/1257 SLP173 T11221167 =
2015-01-28 07:53 METAR KMPO 281253Z AUTO 32020G32KT 7SM CLR M13/M17 A2989 RMK AO2 PK WND
                 31037/1213 SLP161 T11281172 =
2015-01-28 06:53 METAR KMPO 281153Z AUTO 32022G39KT 3SM BLSN FEW003 M13/M17 A2985 RMK AO2 PK WND
                 32039/1148 SLP147 T11331172 11133 21139 53011 =
2015-01-28 05:53 METAR KMPO 281053Z AUTO 31021G38KT 5SM BLSN CLR M13/M18 A2982 RMK AO2 PK WND
                 32038/1047 SLP137 T11331178 =
2015-01-28 04:53 METAR KMPO 280953Z AUTO 31019G27KT 10SM CLR M13/M18 A2982 RMK AO2 PK WND
                 31027/0951 SLP136 T11331183 =
2015-01-28 03:53 METAR KMPO 280853Z AUTO 32015G26KT 10SM CLR M13/M19 A2981 RMK AO2 PK WND
                 32030/0822 SLP132 T11331189 53015 =
2015-01-28 02:53 METAR KMPO 280753Z AUTO 31016G23KT 10SM CLR M13/M20 A2980 RMK AO2 PK WND
                 30030/0733 SLP127 T11331200 =
2015-01-28 01:53 METAR KMPO 280653Z AUTO 32016G28KT 10SM CLR M13/M21 A2978 RMK AO2 PK WND
                 31031/0639 SLP120 T11331206 =
2015-01-28 00:53 METAR KMPO 280553Z AUTO 32014G25KT 10SM CLR M14/M22 A2977 RMK AO2 PK WND
                 33029/0541 SLP116 60000 T11391217 11117 21139 51010 =
2015-01-27 23:53 METAR KMPO 280453Z AUTO 32017G25KT 10SM CLR M14/M19 A2976 RMK AO2 PK WND
                 33031/0420 SLP115 T11391194 410611139 =
2015-01-27 22:53 METAR KMPO 280353Z AUTO 32018G31KT 10SM CLR M13/M18 A2975 RMK AO2 PK WND
                 33031/0352 SLP111 T11331178 =
2015-01-27 21:53 METAR KMPO 280253Z AUTO 32017G27KT 9SM FEW013 M12/M17 A2973 RMK AO2 PK WND
                 33033/0157 UPE09 SLP105 P0000 60000 T11221167 53018 =
2015-01-27 21:28 METAR KMPO 280228Z AUTO 33013G26KT 10SM SCT013 M12/M16 A2972 RMK AO2 PK WND
                 33033/0157 UPE09 P0000 T11221161 =
2015-01-27 20:53 METAR KMPO 280153Z AUTO 32020G27KT 7SM UP BKN010 M12/M16 A2971 RMK AO2 PK WND
                 33031/0140 UPB29 SLP097 P0000 T11221161 =
2015-01-27 19:53 METAR KMPO 280053Z AUTO 33019G30KT 7SM CLR M12/M17 A2969 RMK AO2 PK WND
                 31033/0025 SLP093 T11221167 =

Support USWX by starting your Amazon purchase here.